Ventura, California
Current Conditions -  °F | °C
As of 3:51 AM on Thursday 27 Nov 2014 (Local Time) from KOXR Reporting Station
Clear Clear  
Wind Chill: 67°   Ceiling: Unl
Heat Index: 67°   Visibility: 10mi
Dew Point: 25°   Wind: 13mph
Humidity: 21%   Direction: 40°NE
Pressure: 30.07"   Gusts: NA
Location:  34.28°N, 119.29°W
Report Text: KOXR 271151Z AUTO 04011KT 10SM CLR 19/M04 A3007 RMK AO2 SLP183 T01941039 10194 20117 56015
Loading
Personal Weather Stations






























Interactive Weather Map New forecast layout! Learn more

10-Day Weather Forecast

Advertisements
Track Severe Weather on mobile